createdAt,value
2023-01-09T00:00:00.456Z,6.3
2023-01-09T00:01:00.637Z,6.3
2023-01-09T00:02:00.820Z,6.3
2023-01-09T00:03:00.991Z,6.3
2023-01-09T00:04:01.318Z,6.3
2023-01-09T00:05:01.633Z,6.3
2023-01-09T00:06:01.800Z,6.3
2023-01-09T00:07:01.965Z,6.3
2023-01-09T00:08:02.141Z,6.3
2023-01-09T00:09:02.349Z,6.3
2023-01-09T00:10:02.537Z,6.3
2023-01-09T00:11:02.715Z,6.3
2023-01-09T00:12:02.893Z,6.3
2023-01-09T00:13:03.066Z,6.3
2023-01-09T00:14:03.275Z,6.3
2023-01-09T00:15:03.444Z,6.3
2023-01-09T00:16:03.625Z,6.3
2023-01-09T00:17:03.983Z,6.3
2023-01-09T00:18:04.334Z,6.3
2023-01-09T00:19:04.494Z,6.3
2023-01-09T00:20:04.688Z,6.3
2023-01-09T00:21:04.861Z,6.3
2023-01-09T00:22:05.032Z,6.3
2023-01-09T00:23:05.201Z,6.3
2023-01-09T00:24:05.401Z,6.3
2023-01-09T00:25:05.590Z,6.3
2023-01-09T00:26:05.791Z,6.3
2023-01-09T00:27:05.997Z,6.3
2023-01-09T00:28:06.162Z,6.3
2023-01-09T00:29:06.347Z,6.3
2023-01-09T00:30:06.523Z,6.3
2023-01-09T00:31:06.899Z,6.3
2023-01-09T00:32:07.190Z,6.3
2023-01-09T00:33:07.356Z,6.3
2023-01-09T00:34:07.540Z,6.3
2023-01-09T00:35:07.705Z,6.3
2023-01-09T00:36:07.902Z,6.3
2023-01-09T00:37:08.084Z,6.3
2023-01-09T00:38:08.257Z,6.3
2023-01-09T00:39:08.427Z,6.3
2023-01-09T00:40:08.593Z,6.3
2023-01-09T00:41:08.778Z,6.3
2023-01-09T00:42:08.948Z,6.3
2023-01-09T00:43:09.112Z,6.3
2023-01-09T00:44:09.283Z,6.3
2023-01-09T00:45:09.461Z,6.3
2023-01-09T00:46:09.775Z,6.3
2023-01-09T00:47:10.026Z,6.3
2023-01-09T00:48:10.197Z,6.3
2023-01-09T00:49:10.391Z,6.3
2023-01-09T00:50:10.594Z,6.3
2023-01-09T00:51:10.767Z,6.3
2023-01-09T00:52:10.930Z,6.3
2023-01-09T00:53:11.117Z,6.3
2023-01-09T00:54:11.290Z,6.3
2023-01-09T00:55:11.489Z,6.3
2023-01-09T00:56:11.709Z,6.3
2023-01-09T00:57:11.882Z,6.3
2023-01-09T00:58:12.057Z,6.3
2023-01-09T00:59:12.251Z,6.3
2023-01-09T01:00:12.423Z,6.3
2023-01-09T01:01:12.946Z,6.3
2023-01-09T01:02:13.896Z,6.3
2023-01-09T01:03:14.491Z,6.3
2023-01-09T01:04:14.666Z,6.3
2023-01-09T01:05:14.843Z,6.2
2023-01-09T01:06:15.025Z,6.2
2023-01-09T01:07:15.203Z,6.2
2023-01-09T01:08:15.377Z,6.2
2023-01-09T01:09:15.571Z,6.2
2023-01-09T01:10:15.746Z,6.2
2023-01-09T01:11:15.923Z,6.2
2023-01-09T01:12:16.115Z,6.2
2023-01-09T01:13:16.297Z,6.2
2023-01-09T01:14:16.479Z,6.2
2023-01-09T01:15:16.728Z,6.1
2023-01-09T01:16:17.032Z,6.1
2023-01-09T01:17:17.281Z,6.1
2023-01-09T01:18:17.446Z,6.1
2023-01-09T01:19:17.619Z,6.1
2023-01-09T01:20:17.802Z,6.1
2023-01-09T01:21:17.981Z,6.1
2023-01-09T01:22:18.159Z,6.1
2023-01-09T01:23:18.333Z,6.1
2023-01-09T01:24:18.501Z,6.1
2023-01-09T01:25:18.672Z,6.1
2023-01-09T01:26:18.855Z,6.1
2023-01-09T01:27:19.052Z,6.1
2023-01-09T01:28:19.226Z,6.1
2023-01-09T01:29:19.399Z,6.1
2023-01-09T01:30:19.578Z,6.1
2023-01-09T01:31:19.765Z,6.1
2023-01-09T01:32:19.972Z,6.1
2023-01-09T01:33:20.185Z,6.1
2023-01-09T01:34:20.363Z,6.1
2023-01-09T01:35:20.534Z,6
2023-01-09T01:36:20.716Z,6
2023-01-09T01:37:20.887Z,6
2023-01-09T01:38:21.058Z,6
2023-01-09T01:39:21.255Z,6
2023-01-09T01:40:21.437Z,6
2023-01-09T01:41:21.607Z,6
2023-01-09T01:42:21.804Z,6
2023-01-09T01:43:22.016Z,6
2023-01-09T01:44:22.183Z,6
2023-01-09T01:45:22.375Z,5.9
2023-01-09T01:46:22.588Z,5.9
2023-01-09T01:47:22.812Z,5.9
2023-01-09T01:48:22.990Z,5.9
2023-01-09T01:49:23.174Z,5.9
2023-01-09T01:50:23.361Z,5.9
2023-01-09T01:51:23.541Z,5.9
2023-01-09T01:52:23.723Z,5.9
2023-01-09T01:53:23.910Z,5.9
2023-01-09T01:54:24.082Z,5.9
2023-01-09T01:55:24.247Z,5.9
2023-01-09T01:56:24.443Z,5.9
2023-01-09T01:57:24.617Z,5.9
2023-01-09T01:58:24.782Z,5.9
2023-01-09T01:59:24.960Z,5.9
2023-01-09T02:00:25.144Z,5.9
2023-01-09T02:01:25.631Z,5.9
2023-01-09T02:02:26.281Z,5.9
2023-01-09T02:03:26.664Z,5.9
2023-01-09T02:04:26.849Z,5.9
2023-01-09T02:05:27.026Z,5.9
2023-01-09T02:06:27.223Z,5.9
2023-01-09T02:07:27.386Z,5.9
2023-01-09T02:08:27.577Z,5.9
2023-01-09T02:09:27.760Z,5.9
2023-01-09T02:10:27.932Z,5.9
2023-01-09T02:11:28.132Z,5.9
2023-01-09T02:12:28.331Z,5.9
2023-01-09T02:13:28.517Z,5.9
2023-01-09T02:14:28.684Z,5.9
2023-01-09T02:15:28.857Z,5.9
2023-01-09T02:16:29.017Z,5.9
2023-01-09T02:17:29.185Z,5.9
2023-01-09T02:18:29.368Z,5.9
2023-01-09T02:19:29.543Z,5.9
2023-01-09T02:20:29.765Z,5.9
2023-01-09T02:21:29.938Z,5.9
2023-01-09T02:22:30.144Z,5.9
2023-01-09T02:23:30.320Z,5.9
2023-01-09T02:24:30.489Z,5.9
2023-01-09T02:25:30.665Z,5.9
2023-01-09T02:26:30.867Z,5.9
2023-01-09T02:27:31.058Z,5.9
2023-01-09T02:28:31.262Z,5.9
2023-01-09T02:29:31.448Z,5.9
2023-01-09T02:30:31.632Z,5.9
2023-01-09T02:31:31.899Z,5.9
2023-01-09T02:32:32.099Z,5.9
2023-01-09T02:33:32.270Z,5.9
2023-01-09T02:34:32.434Z,5.9
2023-01-09T02:35:32.605Z,5.8
2023-01-09T02:36:32.789Z,5.8
2023-01-09T02:37:32.969Z,5.8
2023-01-09T02:38:33.147Z,5.8
2023-01-09T02:39:33.335Z,5.8
2023-01-09T02:40:33.513Z,5.8
2023-01-09T02:41:33.693Z,5.8
2023-01-09T02:42:33.861Z,5.8
2023-01-09T02:43:34.040Z,5.8
2023-01-09T02:44:34.225Z,5.8
2023-01-09T02:45:34.452Z,5.7
2023-01-09T02:46:34.739Z,5.7
2023-01-09T02:47:34.904Z,5.7
2023-01-09T02:48:35.078Z,5.7
2023-01-09T02:49:35.250Z,5.7
2023-01-09T02:50:35.421Z,5.7
2023-01-09T02:51:35.638Z,5.7
2023-01-09T02:52:35.808Z,5.7
2023-01-09T02:53:35.980Z,5.7
2023-01-09T02:54:36.152Z,5.7
2023-01-09T02:55:36.316Z,5.5
2023-01-09T02:56:36.490Z,5.5
2023-01-09T02:57:36.671Z,5.5
2023-01-09T02:58:36.852Z,5.5
2023-01-09T02:59:37.038Z,5.5
2023-01-09T03:00:37.214Z,5.5
2023-01-09T03:01:37.705Z,5.5
2023-01-09T03:02:38.300Z,5.5
2023-01-09T03:03:38.519Z,5.5
2023-01-09T03:04:38.690Z,5.5
2023-01-09T03:05:38.889Z,5.3
2023-01-09T03:06:39.050Z,5.3
2023-01-09T03:07:39.211Z,5.3
2023-01-09T03:08:39.371Z,5.3
2023-01-09T03:09:39.552Z,5.3
2023-01-09T03:10:39.748Z,5.3
2023-01-09T03:11:39.910Z,5.3
2023-01-09T03:12:40.096Z,5.3
2023-01-09T03:13:40.274Z,5.3
2023-01-09T03:14:40.454Z,5.3
2023-01-09T03:15:40.629Z,5.1
2023-01-09T03:16:40.907Z,5.1
2023-01-09T03:17:41.195Z,5.1
2023-01-09T03:18:41.363Z,5.1
2023-01-09T03:19:41.537Z,5.1
2023-01-09T03:20:41.714Z,5.1
2023-01-09T03:21:41.879Z,5.1
2023-01-09T03:22:42.048Z,5.1
2023-01-09T03:23:42.227Z,5.1
2023-01-09T03:24:42.397Z,5.1
2023-01-09T03:25:42.570Z,4.9
2023-01-09T03:26:42.799Z,4.9
2023-01-09T03:27:42.979Z,4.9
2023-01-09T03:28:43.159Z,4.9
2023-01-09T03:29:43.341Z,4.9
2023-01-09T03:30:43.516Z,4.9
2023-01-09T03:31:43.794Z,4.9
2023-01-09T03:32:44.047Z,4.9
2023-01-09T03:33:44.246Z,4.9
2023-01-09T03:34:44.419Z,4.9
2023-01-09T03:35:44.588Z,4.69
2023-01-09T03:36:44.771Z,4.69
2023-01-09T03:37:44.954Z,4.69
2023-01-09T03:38:45.152Z,4.69
2023-01-09T03:39:45.328Z,4.69
2023-01-09T03:40:45.506Z,4.69
2023-01-09T03:41:45.681Z,4.69
2023-01-09T03:42:45.855Z,4.69
2023-01-09T03:43:46.015Z,4.69
2023-01-09T03:44:46.200Z,4.6
2023-01-09T03:45:46.444Z,4.6
2023-01-09T03:46:46.643Z,4.6
2023-01-09T03:47:46.825Z,4.6
2023-01-09T03:48:47.013Z,4.6
2023-01-09T03:49:47.183Z,4.6
2023-01-09T03:50:47.434Z,4.6
2023-01-09T03:51:47.677Z,4.6
2023-01-09T03:52:47.849Z,4.6
2023-01-09T03:53:48.022Z,4.6
2023-01-09T03:54:48.199Z,4.5
2023-01-09T03:55:48.387Z,4.5
2023-01-09T03:56:48.563Z,4.5
2023-01-09T03:57:48.729Z,4.5
2023-01-09T03:58:48.898Z,4.5
2023-01-09T03:59:49.071Z,4.5
2023-01-09T04:00:49.398Z,4.5
2023-01-09T04:01:50.266Z,4.5
2023-01-09T04:02:50.756Z,4.5
2023-01-09T04:03:51.042Z,4.5
2023-01-09T04:04:51.348Z,4.5
2023-01-09T04:05:51.535Z,4.5
2023-01-09T04:06:51.711Z,4.5
2023-01-09T04:07:51.900Z,4.5
2023-01-09T04:08:52.118Z,4.5
2023-01-09T04:09:52.295Z,4.5
2023-01-09T04:10:52.467Z,4.5
2023-01-09T04:11:52.644Z,4.5
2023-01-09T04:12:52.814Z,4.5
2023-01-09T04:13:52.998Z,4.5
2023-01-09T04:14:53.179Z,4.4
2023-01-09T04:15:53.369Z,4.4
2023-01-09T04:16:53.542Z,4.4
2023-01-09T04:17:53.717Z,4.4
2023-01-09T04:18:53.926Z,4.4
2023-01-09T04:19:54.113Z,4.4
2023-01-09T04:20:55.646Z,4.4
2023-01-09T04:21:55.825Z,4.4
2023-01-09T04:22:55.995Z,4.4
2023-01-09T04:23:56.173Z,4.4
2023-01-09T04:24:56.355Z,4.3
2023-01-09T04:25:56.549Z,4.3
2023-01-09T04:26:56.714Z,4.3
2023-01-09T04:27:56.890Z,4.3
2023-01-09T04:28:57.055Z,4.3
2023-01-09T04:29:57.238Z,4.3
2023-01-09T04:30:57.435Z,4.3
2023-01-09T04:31:57.695Z,4.3
2023-01-09T04:32:57.893Z,4.3
2023-01-09T04:33:58.064Z,4.3
2023-01-09T04:34:58.263Z,4.19
2023-01-09T04:35:58.453Z,4.19
2023-01-09T04:36:58.660Z,4.19
2023-01-09T04:37:58.862Z,4.19
2023-01-09T04:38:59.036Z,4.19
2023-01-09T04:39:59.211Z,4.19
2023-01-09T04:40:59.385Z,4.19
2023-01-09T04:41:59.563Z,4.19
2023-01-09T04:42:59.736Z,4.19
2023-01-09T04:43:59.926Z,4.19
2023-01-09T04:45:00.139Z,4
2023-01-09T04:46:00.480Z,4
2023-01-09T04:47:00.728Z,4
2023-01-09T04:48:00.925Z,4
2023-01-09T04:49:01.101Z,4
2023-01-09T04:50:01.309Z,4
2023-01-09T04:51:01.473Z,4
2023-01-09T04:52:01.643Z,4
2023-01-09T04:53:01.828Z,4
2023-01-09T04:54:02.028Z,4
2023-01-09T04:55:02.218Z,3.9
2023-01-09T04:56:02.391Z,3.9
2023-01-09T04:57:02.564Z,3.9
2023-01-09T04:58:02.749Z,3.9
2023-01-09T04:59:02.948Z,3.9
2023-01-09T05:00:03.128Z,3.9
2023-01-09T05:01:03.689Z,3.9
2023-01-09T05:02:04.405Z,3.9
2023-01-09T05:03:04.816Z,3.9
2023-01-09T05:04:05.063Z,3.9
2023-01-09T05:05:05.392Z,3.8
2023-01-09T05:06:05.580Z,3.8
2023-01-09T05:07:05.762Z,3.8
2023-01-09T05:08:05.969Z,3.8
2023-01-09T05:09:06.160Z,3.8
2023-01-09T05:10:06.352Z,3.8
2023-01-09T05:11:06.541Z,3.8
2023-01-09T05:12:06.757Z,3.8
2023-01-09T05:13:06.928Z,3.8
2023-01-09T05:14:07.090Z,3.8
2023-01-09T05:15:07.257Z,3.7
2023-01-09T05:16:07.704Z,3.7
2023-01-09T05:17:08.108Z,3.7
2023-01-09T05:18:08.295Z,3.7
2023-01-09T05:19:08.478Z,3.7
2023-01-09T05:20:08.650Z,3.7
2023-01-09T05:21:08.819Z,3.7
2023-01-09T05:22:08.991Z,3.7
2023-01-09T05:23:09.165Z,3.7
2023-01-09T05:24:09.454Z,3.7
2023-01-09T05:25:09.629Z,3.7
2023-01-09T05:26:09.808Z,3.7
2023-01-09T05:27:09.999Z,3.7
2023-01-09T05:28:10.204Z,3.7
2023-01-09T05:29:10.400Z,3.7
2023-01-09T05:30:12.997Z,3.7
2023-01-09T05:31:14.914Z,3.7
2023-01-09T05:32:15.145Z,3.7
2023-01-09T05:33:15.313Z,3.7
2023-01-09T05:34:15.481Z,3.7
2023-01-09T05:35:15.662Z,3.7
2023-01-09T05:36:15.839Z,3.7
2023-01-09T05:37:16.014Z,3.7
2023-01-09T05:38:16.193Z,3.7
2023-01-09T05:39:16.369Z,3.7
2023-01-09T05:40:16.539Z,3.7
2023-01-09T05:41:16.722Z,3.7
2023-01-09T05:42:16.900Z,3.7
2023-01-09T05:43:17.085Z,3.7
2023-01-09T05:44:17.272Z,3.7
2023-01-09T05:45:17.446Z,3.7
2023-01-09T05:46:17.624Z,3.7
2023-01-09T05:47:17.838Z,3.7
2023-01-09T05:48:18.013Z,3.7
2023-01-09T05:49:18.195Z,3.7
2023-01-09T05:50:18.376Z,3.7
2023-01-09T05:51:18.542Z,3.7
2023-01-09T05:52:18.729Z,3.7
2023-01-09T05:53:18.898Z,3.7
2023-01-09T05:54:19.084Z,3.7
2023-01-09T05:55:19.257Z,3.8
2023-01-09T05:56:19.428Z,3.8
2023-01-09T05:57:19.618Z,3.8
2023-01-09T05:58:19.812Z,3.8
2023-01-09T05:59:19.984Z,3.8
2023-01-09T06:00:20.209Z,3.8
2023-01-09T06:01:24.076Z,3.8
2023-01-09T06:02:24.685Z,3.8
2023-01-09T06:03:25.070Z,3.8
2023-01-09T06:04:25.250Z,3.8
2023-01-09T06:05:25.420Z,3.8
2023-01-09T06:06:25.585Z,3.8
2023-01-09T06:07:25.749Z,3.8
2023-01-09T06:08:25.930Z,3.8
2023-01-09T06:09:26.102Z,3.8
2023-01-09T06:10:26.263Z,3.8
2023-01-09T06:11:26.432Z,3.8
2023-01-09T06:12:26.611Z,3.8
2023-01-09T06:13:26.802Z,3.8
2023-01-09T06:14:26.963Z,3.8
2023-01-09T06:15:27.136Z,3.8
2023-01-09T06:16:27.324Z,3.8
2023-01-09T06:17:27.513Z,3.8
2023-01-09T06:18:27.694Z,3.8
2023-01-09T06:19:27.870Z,3.8
2023-01-09T06:20:28.066Z,3.8
2023-01-09T06:21:28.246Z,3.8
2023-01-09T06:22:28.493Z,3.8
2023-01-09T06:23:28.697Z,3.8
2023-01-09T06:24:28.854Z,3.8
2023-01-09T06:25:29.028Z,3.8
2023-01-09T06:26:29.204Z,3.8
2023-01-09T06:27:29.391Z,3.8
2023-01-09T06:28:29.583Z,3.8
2023-01-09T06:29:29.739Z,3.8
2023-01-09T06:30:29.930Z,3.8
2023-01-09T06:31:30.314Z,3.8
2023-01-09T06:32:30.640Z,3.8
2023-01-09T06:33:30.820Z,3.8
2023-01-09T06:34:31.040Z,3.8
2023-01-09T06:35:31.267Z,3.8
2023-01-09T06:36:31.493Z,3.8
2023-01-09T06:37:31.673Z,3.8
2023-01-09T06:38:31.876Z,3.8
2023-01-09T06:39:32.047Z,3.8
2023-01-09T06:40:32.235Z,3.8
2023-01-09T06:41:32.399Z,3.8
2023-01-09T06:42:32.580Z,3.8
2023-01-09T06:43:32.751Z,3.8
2023-01-09T06:44:32.951Z,3.8
2023-01-09T06:45:33.269Z,3.8
2023-01-09T06:46:33.580Z,3.8
2023-01-09T06:47:33.811Z,3.8
2023-01-09T06:48:34.003Z,3.8
2023-01-09T06:49:34.186Z,3.8
2023-01-09T06:50:34.360Z,3.8
2023-01-09T06:51:34.526Z,3.8
2023-01-09T06:52:34.692Z,3.8
2023-01-09T06:53:34.861Z,3.8
2023-01-09T06:54:35.057Z,3.8
2023-01-09T06:55:35.231Z,3.9
2023-01-09T06:56:35.421Z,3.9
2023-01-09T06:57:35.633Z,3.9
2023-01-09T06:58:35.803Z,3.9
2023-01-09T06:59:35.996Z,3.9
2023-01-09T07:00:36.172Z,3.9
2023-01-09T07:01:36.530Z,3.9
2023-01-09T07:02:36.845Z,3.9
2023-01-09T07:03:37.030Z,3.9
2023-01-09T07:04:37.204Z,3.9
2023-01-09T07:05:37.366Z,4
2023-01-09T07:06:37.547Z,4
2023-01-09T07:07:37.752Z,4
2023-01-09T07:08:37.931Z,4
2023-01-09T07:09:38.098Z,4
2023-01-09T07:10:38.292Z,4
2023-01-09T07:11:38.469Z,4
2023-01-09T07:12:38.648Z,4
2023-01-09T07:13:38.827Z,4
2023-01-09T07:14:39.027Z,4
2023-01-09T07:15:39.320Z,4.1
2023-01-09T07:16:39.634Z,4.1
2023-01-09T07:17:39.841Z,4.1
2023-01-09T07:18:40.031Z,4.1
2023-01-09T07:19:40.208Z,4.1
2023-01-09T07:20:40.400Z,4.1
2023-01-09T07:21:40.573Z,4.1
2023-01-09T07:22:40.750Z,4.1
2023-01-09T07:23:40.927Z,4.1
2023-01-09T07:24:41.156Z,4.1
2023-01-09T07:25:41.340Z,4
2023-01-09T07:26:43.512Z,4
2023-01-09T07:27:43.690Z,4
2023-01-09T07:28:43.869Z,4
2023-01-09T07:29:44.039Z,4
2023-01-09T07:30:44.218Z,4
2023-01-09T07:31:44.409Z,4
2023-01-09T07:32:44.609Z,4
2023-01-09T07:33:44.807Z,4
2023-01-09T07:34:44.980Z,4
2023-01-09T07:35:45.149Z,4
2023-01-09T07:36:45.318Z,4
2023-01-09T07:37:45.480Z,4
2023-01-09T07:38:45.646Z,4
2023-01-09T07:39:45.816Z,4
2023-01-09T07:40:45.987Z,4
2023-01-09T07:41:46.163Z,4
2023-01-09T07:42:46.353Z,4
2023-01-09T07:43:46.571Z,4
2023-01-09T07:44:46.739Z,3.9
2023-01-09T07:45:46.919Z,3.9
2023-01-09T07:46:47.128Z,3.9
2023-01-09T07:47:47.367Z,3.9
2023-01-09T07:48:47.564Z,3.9
2023-01-09T07:49:47.738Z,3.9
2023-01-09T07:50:47.923Z,3.9
2023-01-09T07:51:48.093Z,3.9
2023-01-09T07:52:48.340Z,3.9
2023-01-09T07:53:48.513Z,3.9
2023-01-09T07:54:48.678Z,3.9
2023-01-09T07:55:48.847Z,3.9
2023-01-09T07:56:49.030Z,3.9
2023-01-09T07:57:49.200Z,3.9
2023-01-09T07:58:49.371Z,3.9
2023-01-09T07:59:49.559Z,3.9
2023-01-09T08:00:49.817Z,3.9
2023-01-09T08:01:50.226Z,3.9
2023-01-09T08:02:50.729Z,3.9
2023-01-09T08:03:51.019Z,3.9
2023-01-09T08:04:51.244Z,3.9
2023-01-09T08:05:51.828Z,3.9
2023-01-09T08:06:52.006Z,3.9
2023-01-09T08:07:52.178Z,3.9
2023-01-09T08:08:52.350Z,3.9
2023-01-09T08:09:52.517Z,3.9
2023-01-09T08:10:52.705Z,3.9
2023-01-09T08:11:52.892Z,3.9
2023-01-09T08:12:53.079Z,3.9
2023-01-09T08:13:53.254Z,3.9
2023-01-09T08:14:53.425Z,3.9
2023-01-09T08:15:53.742Z,3.9
2023-01-09T08:16:53.985Z,3.9
2023-01-09T08:17:54.159Z,3.9
2023-01-09T08:18:54.400Z,3.9
2023-01-09T08:19:54.599Z,3.9
2023-01-09T08:20:54.777Z,3.9
2023-01-09T08:21:54.940Z,3.9
2023-01-09T08:22:55.124Z,3.9
2023-01-09T08:23:55.313Z,3.9
2023-01-09T08:24:55.507Z,3.8
2023-01-09T08:25:55.702Z,3.8
2023-01-09T08:26:55.866Z,3.8
2023-01-09T08:27:56.054Z,3.8
2023-01-09T08:28:56.248Z,3.8
2023-01-09T08:29:56.422Z,3.8
2023-01-09T08:30:56.599Z,3.8
2023-01-09T08:31:56.784Z,3.8
2023-01-09T08:32:56.964Z,3.8
2023-01-09T08:33:57.170Z,3.8
2023-01-09T08:34:57.470Z,3.9
2023-01-09T08:35:57.823Z,3.9
2023-01-09T08:36:58.041Z,3.9
2023-01-09T08:37:58.220Z,3.9
2023-01-09T08:38:58.418Z,3.9
2023-01-09T08:39:58.603Z,3.9
2023-01-09T08:40:58.792Z,3.9
2023-01-09T08:41:58.995Z,3.9
2023-01-09T08:42:59.169Z,3.9
2023-01-09T08:43:59.359Z,3.9
2023-01-09T08:44:59.547Z,4
2023-01-09T08:45:59.721Z,4
2023-01-09T08:46:59.890Z,4
2023-01-09T08:48:00.107Z,4
2023-01-09T08:49:00.284Z,4
2023-01-09T08:50:00.454Z,4
2023-01-09T08:51:00.650Z,4
2023-01-09T08:52:00.865Z,4
2023-01-09T08:53:01.040Z,4
2023-01-09T08:54:01.202Z,4
2023-01-09T08:55:01.383Z,4.19
2023-01-09T08:56:01.598Z,4.19
2023-01-09T08:57:01.771Z,4.19
2023-01-09T08:58:01.939Z,4.19
2023-01-09T08:59:02.118Z,4.19
2023-01-09T09:00:02.313Z,4.19
2023-01-09T09:01:02.528Z,4.19
2023-01-09T09:02:02.830Z,4.19
2023-01-09T09:03:03.265Z,4.19
2023-01-09T09:04:03.599Z,4.19
2023-01-09T09:05:03.790Z,4.3
2023-01-09T09:06:03.964Z,4.3
2023-01-09T09:07:04.132Z,4.3
2023-01-09T09:08:04.321Z,4.3
2023-01-09T09:09:04.495Z,4.3
2023-01-09T09:10:04.686Z,4.3
2023-01-09T09:11:04.885Z,4.3
2023-01-09T09:12:05.116Z,4.3
2023-01-09T09:13:05.299Z,4.3
2023-01-09T09:14:05.486Z,4.3
2023-01-09T09:15:05.775Z,4.4
2023-01-09T09:16:06.096Z,4.4
2023-01-09T09:17:06.329Z,4.4
2023-01-09T09:18:06.495Z,4.4
2023-01-09T09:19:06.673Z,4.4
2023-01-09T09:20:06.855Z,4.4
2023-01-09T09:21:07.173Z,4.4
2023-01-09T09:22:07.370Z,4.4
2023-01-09T09:23:07.555Z,4.4
2023-01-09T09:24:07.721Z,4.4
2023-01-09T09:25:07.912Z,4.6
2023-01-09T09:26:08.095Z,4.6
2023-01-09T09:27:08.260Z,4.6
2023-01-09T09:28:08.462Z,4.6
2023-01-09T09:29:08.643Z,4.6
2023-01-09T09:30:08.808Z,4.6
2023-01-09T09:31:09.160Z,4.6
2023-01-09T09:32:09.406Z,4.6
2023-01-09T09:33:09.586Z,4.6
2023-01-09T09:34:09.751Z,4.6
2023-01-09T09:35:09.921Z,5.3
2023-01-09T09:36:10.124Z,5.3
2023-01-09T09:37:10.554Z,5.3
2023-01-09T09:38:10.861Z,5.3
2023-01-09T09:39:11.049Z,5.3
2023-01-09T09:40:19.098Z,5.3
2023-01-09T09:41:19.507Z,6
2023-01-09T09:42:19.693Z,6
2023-01-09T09:43:19.890Z,6.3
2023-01-09T09:44:20.064Z,6.3
2023-01-09T09:45:20.233Z,6.3
2023-01-09T09:46:20.520Z,6.3
2023-01-09T09:47:20.805Z,6.3
2023-01-09T09:48:21.007Z,6.3
2023-01-09T09:49:21.239Z,6.3
2023-01-09T09:50:21.437Z,6.3
2023-01-09T09:51:21.645Z,6.3
2023-01-09T09:52:21.825Z,7.3
2023-01-09T09:53:22.026Z,7.3
2023-01-09T09:54:22.216Z,7.3
2023-01-09T09:55:22.392Z,7.3
2023-01-09T09:56:22.610Z,7.3
2023-01-09T09:57:22.791Z,7.3
2023-01-09T09:58:22.967Z,7.3
2023-01-09T09:59:26.883Z,7.3
2023-01-09T10:00:27.322Z,7.8
2023-01-09T10:01:27.497Z,7.8
2023-01-09T10:02:27.751Z,7.9
2023-01-09T10:03:34.630Z,7.9
2023-01-09T10:04:35.058Z,8
2023-01-09T10:05:35.234Z,8
2023-01-09T10:06:35.415Z,8
2023-01-09T10:07:35.590Z,8
2023-01-09T10:08:35.778Z,8
2023-01-09T10:09:35.970Z,8
2023-01-09T10:10:36.146Z,8
2023-01-09T10:11:36.346Z,8
2023-01-09T10:12:36.515Z,8.39
2023-01-09T10:13:36.687Z,8.39
2023-01-09T10:14:36.863Z,8.39
2023-01-09T10:15:38.713Z,8.39
2023-01-09T10:16:38.990Z,8.39
2023-01-09T10:17:39.162Z,8.39
2023-01-09T10:18:39.367Z,8.39
2023-01-09T10:19:39.543Z,8.39
2023-01-09T10:20:39.712Z,8.39
2023-01-09T10:21:39.888Z,8.39
2023-01-09T10:22:40.076Z,9.1
2023-01-09T10:23:40.259Z,9.1
2023-01-09T10:24:40.444Z,9.1
2023-01-09T10:25:40.654Z,9.1
2023-01-09T10:26:40.940Z,9.1
2023-01-09T10:27:41.134Z,9.1
2023-01-09T10:28:41.327Z,9.1
2023-01-09T10:29:41.904Z,9.1
2023-01-09T10:30:42.092Z,9.1
2023-01-09T10:31:42.344Z,9.1
2023-01-09T10:32:42.651Z,9.2
2023-01-09T10:33:42.829Z,9.2
2023-01-09T10:34:46.838Z,9.2
2023-01-09T10:35:48.554Z,9
2023-01-09T10:36:48.866Z,9
2023-01-09T10:37:49.131Z,9
2023-01-09T10:38:49.329Z,9
2023-01-09T10:39:49.517Z,9
2023-01-09T10:40:49.736Z,9
2023-01-09T10:41:49.986Z,9
2023-01-09T10:42:50.178Z,8.39
2023-01-09T10:43:50.351Z,8.39
2023-01-09T10:44:50.531Z,8.39
2023-01-09T10:45:50.739Z,8.39
2023-01-09T10:46:51.078Z,8.39
2023-01-09T10:47:51.335Z,8.39
2023-01-09T10:48:51.509Z,8.39
2023-01-09T10:49:51.688Z,8.39
2023-01-09T10:50:51.876Z,8.39
2023-01-09T10:51:52.048Z,8.39
2023-01-09T10:52:52.237Z,7.6
2023-01-09T10:53:52.563Z,7.6
2023-01-09T10:54:52.739Z,7.6
2023-01-09T10:55:52.978Z,7.6
2023-01-09T10:56:53.147Z,7.6
2023-01-09T10:57:53.318Z,7.6
2023-01-09T10:58:53.508Z,7.6
2023-01-09T10:59:53.731Z,7.6
2023-01-09T11:00:53.961Z,7.6
2023-01-09T11:01:54.257Z,7.6
2023-01-09T11:02:54.532Z,7.1
2023-01-09T11:03:54.734Z,7.1
2023-01-09T11:04:54.923Z,7.1
2023-01-09T11:05:55.136Z,7.1
2023-01-09T11:06:55.356Z,7.1
2023-01-09T11:07:55.550Z,7.1
2023-01-09T11:08:55.737Z,7.1
2023-01-09T11:09:55.905Z,7.1
2023-01-09T11:10:56.088Z,7.1
2023-01-09T11:11:56.268Z,7.1
2023-01-09T11:12:56.439Z,6.6
2023-01-09T11:13:56.618Z,6.6
2023-01-09T11:14:56.800Z,6.6
2023-01-09T11:15:57.041Z,6.6
2023-01-09T11:16:57.252Z,6.6
2023-01-09T11:17:57.419Z,6.6
2023-01-09T11:18:57.608Z,6.6
2023-01-09T11:19:57.775Z,6.6
2023-01-09T11:20:57.968Z,6.6
2023-01-09T11:21:58.161Z,6.6
2023-01-09T11:22:58.338Z,6.1
2023-01-09T11:23:58.520Z,6.1
2023-01-09T11:24:58.693Z,6.1
2023-01-09T11:25:58.891Z,6.1
2023-01-09T11:26:59.072Z,6.1
2023-01-09T11:27:59.248Z,6.1
2023-01-09T11:28:59.439Z,6.1
2023-01-09T11:29:59.641Z,6.1
2023-01-09T11:30:59.878Z,6.1
2023-01-09T11:32:00.170Z,6.1
2023-01-09T11:33:00.602Z,5.7
2023-01-09T11:34:00.800Z,5.7
2023-01-09T11:35:00.978Z,5.7
2023-01-09T11:36:01.171Z,5.7
2023-01-09T11:37:01.459Z,5.7
2023-01-09T11:38:01.758Z,5.7
2023-01-09T11:39:01.934Z,5.7
2023-01-09T11:40:02.117Z,5.7
2023-01-09T11:41:02.292Z,5.7
2023-01-09T11:42:02.485Z,5.7
2023-01-09T11:43:02.683Z,5.3
2023-01-09T11:44:02.854Z,5.3
2023-01-09T11:45:03.027Z,5.3
2023-01-09T11:46:03.215Z,5.3
2023-01-09T11:47:03.398Z,5.3
2023-01-09T11:48:03.594Z,5.3
2023-01-09T11:49:03.765Z,5.3
2023-01-09T11:50:03.962Z,5.3
2023-01-09T11:51:04.142Z,5.3
2023-01-09T11:52:04.331Z,5.1
2023-01-09T11:53:04.597Z,5.1
2023-01-09T11:54:04.766Z,5.1
2023-01-09T11:55:04.937Z,5.1
2023-01-09T11:56:05.111Z,5.1
2023-01-09T11:57:05.310Z,5.1
2023-01-09T11:58:05.524Z,5.1
2023-01-09T11:59:05.710Z,5.1
2023-01-09T12:00:05.975Z,5.1
2023-01-09T12:01:06.191Z,5.1
2023-01-09T12:02:06.444Z,4.8
2023-01-09T12:03:06.879Z,4.8
2023-01-09T12:04:07.089Z,4.8
2023-01-09T12:05:07.272Z,4.8
2023-01-09T12:06:07.448Z,4.8
2023-01-09T12:07:07.611Z,4.8
2023-01-09T12:08:07.783Z,4.8
2023-01-09T12:09:07.989Z,4.8
2023-01-09T12:10:08.165Z,4.8
2023-01-09T12:11:08.334Z,4.8
2023-01-09T12:12:08.515Z,4.6
2023-01-09T12:13:08.693Z,4.6
2023-01-09T12:14:08.888Z,4.6
2023-01-09T12:15:10.300Z,4.6
2023-01-09T12:16:10.625Z,4.6
2023-01-09T12:17:10.911Z,4.6
2023-01-09T12:18:11.162Z,4.6
2023-01-09T12:19:11.367Z,4.6
2023-01-09T12:20:11.556Z,4.6
2023-01-09T12:21:11.745Z,4.6
2023-01-09T12:22:11.915Z,4.19
2023-01-09T12:23:12.090Z,4.19
2023-01-09T12:24:12.276Z,4.19
2023-01-09T12:25:12.494Z,4.19
2023-01-09T12:26:12.669Z,4.19
2023-01-09T12:27:12.853Z,4.19
2023-01-09T12:28:13.020Z,4.19
2023-01-09T12:29:13.185Z,4.19
2023-01-09T12:30:13.350Z,4.19
2023-01-09T12:31:13.652Z,4.19
2023-01-09T12:32:13.936Z,3.9
2023-01-09T12:33:14.117Z,3.9
2023-01-09T12:34:14.291Z,3.9
2023-01-09T12:35:14.490Z,3.9
2023-01-09T12:36:14.669Z,3.9
2023-01-09T12:37:15.029Z,3.9
2023-01-09T12:38:15.301Z,3.9
2023-01-09T12:39:15.482Z,3.9
2023-01-09T12:40:15.927Z,3.9
2023-01-09T12:41:16.164Z,3.9
2023-01-09T12:42:16.337Z,3.8
2023-01-09T12:43:16.526Z,3.8
2023-01-09T12:44:34.522Z,3.8
2023-01-09T12:45:36.624Z,3.8
2023-01-09T12:46:36.876Z,3.8
2023-01-09T12:47:37.045Z,3.8
2023-01-09T12:48:37.217Z,3.8
2023-01-09T12:49:37.411Z,3.8
2023-01-09T12:50:37.598Z,3.8
2023-01-09T12:51:37.788Z,3.8
2023-01-09T12:52:37.979Z,3.8
2023-01-09T12:53:38.144Z,3.8
2023-01-09T12:54:38.370Z,3.8
2023-01-09T12:55:38.553Z,3.8
2023-01-09T12:56:38.729Z,3.8
2023-01-09T12:57:38.934Z,3.8
2023-01-09T12:58:39.101Z,3.8
2023-01-09T12:59:39.285Z,3.8
2023-01-09T13:00:39.611Z,3.8
2023-01-09T13:01:39.848Z,3.8
2023-01-09T13:02:40.027Z,4
2023-01-09T13:03:40.201Z,4
2023-01-09T13:04:40.398Z,4
2023-01-09T13:05:40.587Z,4
2023-01-09T13:06:40.769Z,4
2023-01-09T13:07:40.943Z,4
2023-01-09T13:08:41.116Z,4
2023-01-09T13:09:41.284Z,4
2023-01-09T13:10:41.468Z,4
2023-01-09T13:11:41.648Z,4
2023-01-09T13:12:41.827Z,4
2023-01-09T13:13:41.995Z,4
2023-01-09T13:14:42.184Z,4
2023-01-09T13:15:42.376Z,4
2023-01-09T13:16:42.707Z,4
2023-01-09T13:17:42.955Z,4
2023-01-09T13:18:43.185Z,4
2023-01-09T13:19:43.380Z,4
2023-01-09T13:20:43.574Z,4
2023-01-09T13:21:43.787Z,4
2023-01-09T13:22:43.980Z,4.1
2023-01-09T13:23:44.153Z,4.1
2023-01-09T13:24:44.330Z,4.1
2023-01-09T13:25:44.507Z,4.1
2023-01-09T13:26:44.747Z,4.1
2023-01-09T13:27:44.916Z,4.1
2023-01-09T13:28:45.090Z,4.1
2023-01-09T13:29:45.268Z,4.1
2023-01-09T13:30:45.448Z,4.1
2023-01-09T13:31:45.786Z,4.1
2023-01-09T13:32:46.111Z,4.1
2023-01-09T13:33:46.298Z,4.1
2023-01-09T13:34:46.492Z,4.1
2023-01-09T13:35:46.699Z,4.1
2023-01-09T13:36:46.948Z,4.1
2023-01-09T13:37:47.168Z,4.1
2023-01-09T13:38:47.383Z,4.1
2023-01-09T13:39:47.589Z,4.1
2023-01-09T13:40:47.790Z,4.1
2023-01-09T13:41:47.980Z,4.1
2023-01-09T13:42:48.182Z,4.19
2023-01-09T13:43:48.382Z,4.19
2023-01-09T13:44:48.597Z,4.19
2023-01-09T13:45:48.917Z,4.19
2023-01-09T13:46:49.121Z,4.19
2023-01-09T13:47:49.301Z,4.19
2023-01-09T13:48:49.485Z,4.19
2023-01-09T13:49:49.668Z,4.19
2023-01-09T13:50:49.869Z,4.19
2023-01-09T13:51:50.068Z,4.19
2023-01-09T13:52:50.241Z,4.5
2023-01-09T13:53:50.410Z,4.5